Time;durP1;ratioP1;P1;durP2;ratioP2;P2;SDS_P1;SDS_P2;PMS_P1;PMS_P2;Temp;Humidity;BMP_temperature;BMP_pressure;BME280_temperature;BME280_humidity;BME280_pressure;Samples;Min_cycle;Max_cycle;Signal;HPM_P1;HPM_P2
2024/03/12 00:01:22;;;;;;;12.27;6.83;;;6.60;99.90;;;;;;4198460;28;20269;-79
2024/03/12 00:03:27;;;;;;;12.10;6.70;;;6.70;99.90;;;;;;4198740;28;20235;-79
2024/03/12 00:05:29;;;;;;;14.47;7.83;;;6.60;99.90;;;;;;4196775;28;20222;-79
2024/03/12 00:07:30;;;;;;;15.47;7.00;;;6.60;99.90;;;;;;4193538;28;20228;-79
2024/03/12 00:09:33;;;;;;;15.17;6.90;;;6.50;99.90;;;;;;4189332;28;20212;-79
2024/03/12 00:11:35;;;;;;;11.03;6.73;;;6.50;99.90;;;;;;4198633;28;20206;-79
2024/03/12 00:13:39;;;;;;;12.50;6.57;;;6.10;99.90;;;;;;4197101;28;20226;-79
2024/03/12 00:15:41;;;;;;;10.87;6.17;;;6.40;99.90;;;;;;4195107;28;20233;-78
2024/03/12 00:17:43;;;;;;;10.87;6.63;;;6.40;99.90;;;;;;4196662;28;20265;-79
2024/03/12 00:19:46;;;;;;;17.03;6.90;;;6.40;99.90;;;;;;4196102;28;20517;-78
2024/03/12 00:21:48;;;;;;;15.70;7.20;;;6.30;99.90;;;;;;4195187;28;20209;-81
2024/03/12 00:23:50;;;;;;;14.73;7.20;;;6.30;99.90;;;;;;4198253;28;20448;-78
2024/03/12 00:25:52;;;;;;;14.40;7.30;;;6.30;99.90;;;;;;4198317;28;20466;-78
2024/03/12 00:27:54;;;;;;;13.73;7.70;;;6.20;99.90;;;;;;4204448;28;20226;-79
2024/03/12 00:29:56;;;;;;;12.60;7.17;;;6.10;99.90;;;;;;4206144;28;20194;-79
2024/03/12 00:31:58;;;;;;;13.73;7.20;;;6.20;99.90;;;;;;4204407;28;20217;-78
2024/03/12 00:34:00;;;;;;;14.30;7.57;;;6.10;99.90;;;;;;4195937;28;20270;-79
2024/03/12 00:36:03;;;;;;;13.60;7.20;;;6.00;99.90;;;;;;4197306;28;20211;-76
2024/03/12 00:38:04;;;;;;;12.57;7.20;;;6.10;99.90;;;;;;4195581;28;21065;-79
2024/03/12 00:40:11;;;;;;;12.83;6.97;;;6.00;99.90;;;;;;4195713;28;20445;-78
2024/03/12 00:42:13;;;;;;;12.33;6.77;;;6.00;99.90;;;;;;4193403;28;20202;-79
2024/03/12 00:44:16;;;;;;;10.93;7.03;;;6.00;99.90;;;;;;4195794;28;20446;-81
2024/03/12 00:46:17;;;;;;;14.03;7.00;;;5.90;99.90;;;;;;4193888;28;20518;-80
2024/03/12 00:48:19;;;;;;;12.20;7.00;;;5.90;99.90;;;;;;4192264;28;20217;-79
2024/03/12 00:50:22;;;;;;;13.53;6.80;;;5.90;99.90;;;;;;4191732;28;20495;-79
2024/03/12 00:52:26;;;;;;;13.37;7.00;;;5.90;99.90;;;;;;4192260;28;20638;-79
2024/03/12 00:54:28;;;;;;;13.07;7.10;;;5.80;99.90;;;;;;4185755;28;20479;-80
2024/03/12 00:56:32;;;;;;;14.77;7.83;;;5.80;99.90;;;;;;4190974;28;20444;-79
2024/03/12 00:58:39;;;;;;;14.03;7.27;;;5.80;99.90;;;;;;4193026;28;20428;-79
2024/03/12 01:00:41;;;;;;;11.67;6.63;;;5.70;99.90;;;;;;4195910;28;20456;-79
2024/03/12 01:02:42;;;;;;;11.60;6.27;;;5.70;99.90;;;;;;4194588;28;20448;-79
2024/03/12 01:04:47;;;;;;;11.57;6.70;;;5.70;99.90;;;;;;4192482;28;20459;-80
2024/03/12 01:06:49;;;;;;;11.13;6.90;;;5.60;99.90;;;;;;4192823;28;20476;-79
2024/03/12 01:08:52;;;;;;;11.57;7.07;;;5.60;99.90;;;;;;4188922;28;20484;-79
2024/03/12 01:10:54;;;;;;;14.07;7.27;;;5.60;99.90;;;;;;4184845;28;20480;-80
2024/03/12 01:12:58;;;;;;;13.03;7.30;;;5.50;99.90;;;;;;4188793;28;20488;-80
2024/03/12 01:14:59;;;;;;;12.63;6.97;;;5.50;99.90;;;;;;4190254;28;20532;-79
2024/03/12 01:17:02;;;;;;;11.87;6.80;;;5.50;99.90;;;;;;4190708;28;20467;-79
2024/03/12 01:19:06;;;;;;;12.87;7.27;;;5.40;99.90;;;;;;4193466;28;20444;-79
2024/03/12 01:21:08;;;;;;;14.47;8.20;;;5.40;99.90;;;;;;4191690;28;20498;-79
2024/03/12 01:23:10;;;;;;;13.53;7.57;;;5.40;99.90;;;;;;4193133;28;20468;-79
2024/03/12 01:25:15;;;;;;;16.33;8.07;;;5.30;99.90;;;;;;4191840;28;20449;-79
2024/03/12 01:27:15;;;;;;;14.97;8.03;;;5.30;99.90;;;;;;4198449;28;21013;-80
2024/03/12 01:29:17;;;;;;;14.47;7.97;;;5.30;99.90;;;;;;4191578;28;20484;-79
2024/03/12 01:31:21;;;;;;;15.57;8.23;;;5.30;99.90;;;;;;4190765;28;20193;-80
2024/03/12 01:33:23;;;;;;;16.03;8.60;;;5.20;99.90;;;;;;4190151;28;20468;-79
2024/03/12 01:35:24;;;;;;;13.83;8.53;;;5.20;99.90;;;;;;4187438;28;20459;-80
2024/03/12 01:37:26;;;;;;;15.37;8.20;;;5.20;99.90;;;;;;4192784;28;20496;-79
2024/03/12 01:39:28;;;;;;;18.20;8.83;;;5.20;99.90;;;;;;4190932;28;20501;-79
2024/03/12 01:41:34;;;;;;;16.03;8.10;;;5.20;99.90;;;;;;4193891;28;20838;-79
2024/03/12 01:43:43;;;;;;;13.40;7.90;;;5.20;99.90;;;;;;4189738;28;20446;-79
2024/03/12 01:45:45;;;;;;;12.87;7.17;;;5.10;99.90;;;;;;4194312;28;20466;-79
2024/03/12 01:47:47;;;;;;;15.20;8.20;;;5.10;99.90;;;;;;4200195;28;20474;-81
2024/03/12 01:49:49;;;;;;;15.30;8.23;;;5.10;99.90;;;;;;4202026;28;20447;-79
2024/03/12 01:51:53;;;;;;;12.80;7.77;;;5.10;99.90;;;;;;4193734;28;20893;-80
2024/03/12 01:53:56;;;;;;;14.27;7.80;;;5.00;99.90;;;;;;4197788;28;20999;-79
2024/03/12 01:55:58;;;;;;;21.03;10.00;;;4.90;99.90;;;;;;4199107;28;20459;-79
2024/03/12 01:58:01;;;;;;;21.77;10.80;;;5.00;99.90;;;;;;4187358;28;20883;-80
2024/03/12 02:00:10;;;;;;;18.50;10.30;;;5.00;99.90;;;;;;4194087;28;20829;-79
2024/03/12 02:02:17;;;;;;;20.23;10.60;;;5.00;99.90;;;;;;4209359;28;20454;-80
2024/03/12 02:04:20;;;;;;;19.80;10.03;;;4.90;99.90;;;;;;4190015;28;20528;-79
2024/03/12 02:06:27;;;;;;;17.80;9.47;;;5.00;99.90;;;;;;4187625;28;20448;-79
2024/03/12 02:08:32;;;;;;;18.77;10.17;;;4.90;99.90;;;;;;4187835;28;20515;-79
2024/03/12 02:10:33;;;;;;;18.60;9.80;;;5.00;99.90;;;;;;4192123;28;20448;-80
2024/03/12 02:12:35;;;;;;;20.07;10.13;;;5.00;99.90;;;;;;4190828;28;20513;-79
2024/03/12 02:14:38;;;;;;;21.30;9.03;;;4.90;99.90;;;;;;4195146;28;20291;-79
2024/03/12 02:16:40;;;;;;;18.37;9.37;;;4.90;99.90;;;;;;4193538;28;20566;-80
2024/03/12 02:18:41;;;;;;;18.13;10.17;;;5.10;99.90;;;;;;4191420;28;20910;-79
2024/03/12 02:20:43;;;;;;;21.90;10.43;;;5.00;99.90;;;;;;4190918;28;20440;-79
2024/03/12 02:22:44;;;;;;;17.37;9.67;;;4.90;99.90;;;;;;4192471;28;20309;-80
2024/03/12 02:24:49;;;;;;;18.37;9.20;;;4.90;99.90;;;;;;4193683;28;21083;-80
2024/03/12 02:26:53;;;;;;;17.43;9.70;;;4.90;99.90;;;;;;4190424;28;20475;-79
2024/03/12 02:28:55;;;;;;;18.53;9.63;;;4.90;99.90;;;;;;4187595;28;20518;-79
2024/03/12 02:30:57;;;;;;;16.23;9.20;;;4.90;99.90;;;;;;4201888;28;20456;-80
2024/03/12 02:32:59;;;;;;;16.70;9.40;;;4.80;99.90;;;;;;4193022;28;20810;-80
2024/03/12 02:35:00;;;;;;;16.20;9.37;;;4.80;99.90;;;;;;4197361;28;20452;-79
2024/03/12 02:37:02;;;;;;;19.53;9.30;;;4.80;99.90;;;;;;4195838;28;20916;-79
2024/03/12 02:39:04;;;;;;;19.27;9.90;;;4.80;99.90;;;;;;4197339;28;20204;-79
2024/03/12 02:41:10;;;;;;;17.77;10.07;;;4.80;99.90;;;;;;4198647;28;20477;-81
2024/03/12 02:43:11;;;;;;;18.17;10.33;;;4.80;99.90;;;;;;4193410;28;20469;-79
2024/03/12 02:45:14;;;;;;;16.27;8.87;;;4.80;99.90;;;;;;4193524;28;20482;-79
2024/03/12 02:47:20;;;;;;;15.00;8.90;;;4.70;99.90;;;;;;4192874;28;20241;-79
2024/03/12 02:49:22;;;;;;;17.47;9.73;;;4.70;99.90;;;;;;4195131;28;20479;-79
2024/03/12 02:51:26;;;;;;;16.03;8.17;;;4.70;99.90;;;;;;4189803;28;20495;-79
2024/03/12 02:53:28;;;;;;;13.40;8.77;;;4.70;99.90;;;;;;4201091;28;20442;-80
2024/03/12 02:55:30;;;;;;;15.63;9.53;;;4.60;99.90;;;;;;4192458;28;20840;-79
2024/03/12 02:57:33;;;;;;;16.93;9.57;;;5.20;99.90;;;;;;4197523;28;20544;-79
2024/03/12 02:59:35;;;;;;;19.97;10.40;;;4.60;99.90;;;;;;4193703;28;20447;-80
2024/03/12 03:01:37;;;;;;;14.67;8.30;;;4.60;99.90;;;;;;4196738;28;20462;-80
2024/03/12 03:03:38;;;;;;;18.20;9.27;;;4.60;99.90;;;;;;4186407;28;20531;-79
2024/03/12 03:05:43;;;;;;;16.43;9.30;;;4.60;99.90;;;;;;4189658;28;20446;-79
2024/03/12 03:07:48;;;;;;;16.63;9.77;;;4.60;99.90;;;;;;4192647;28;20239;-80
2024/03/12 03:09:50;;;;;;;14.57;8.00;;;4.50;99.90;;;;;;4192263;28;20560;-79
2024/03/12 03:11:52;;;;;;;16.03;8.53;;;4.60;99.90;;;;;;4194969;28;20459;-79
2024/03/12 03:13:55;;;;;;;15.53;9.03;;;4.50;99.90;;;;;;4195272;28;20471;-80
2024/03/12 03:15:57;;;;;;;17.37;9.67;;;4.60;99.90;;;;;;4196025;28;20469;-79
2024/03/12 03:18:01;;;;;;;17.60;9.60;;;4.50;99.90;;;;;;4194168;28;20475;-79
2024/03/12 03:20:04;;;;;;;16.43;9.17;;;4.50;99.90;;;;;;4192702;28;20450;-79
2024/03/12 03:22:07;;;;;;;15.33;8.97;;;4.50;99.90;;;;;;4195047;28;20484;-79
2024/03/12 03:24:09;;;;;;;17.30;8.40;;;4.50;99.90;;;;;;4191920;28;20496;-79
2024/03/12 03:26:11;;;;;;;16.20;8.50;;;4.50;99.90;;;;;;4195842;28;20447;-79
2024/03/12 03:28:14;;;;;;;15.77;8.37;;;4.50;99.90;;;;;;4191320;28;20511;-79
2024/03/12 03:30:18;;;;;;;14.77;8.33;;;4.50;99.90;;;;;;4193839;28;21067;-80
2024/03/12 03:32:20;;;;;;;20.97;8.70;;;4.50;99.90;;;;;;4191472;28;20521;-79
2024/03/12 03:34:28;;;;;;;16.03;9.20;;;4.40;99.90;;;;;;4193023;28;20442;-80
2024/03/12 03:36:31;;;;;;;15.50;8.77;;;4.50;99.90;;;;;;4192510;28;20501;-79
2024/03/12 03:38:39;;;;;;;13.97;7.73;;;4.40;99.90;;;;;;4188619;28;20442;-80
2024/03/12 03:40:42;;;;;;;14.80;8.03;;;4.40;99.90;;;;;;4193255;28;20891;-79
2024/03/12 03:42:44;;;;;;;17.17;8.90;;;4.40;99.90;;;;;;4189876;28;20548;-79
2024/03/12 03:44:46;;;;;;;11.53;7.47;;;4.40;99.90;;;;;;4189927;28;20975;-79
2024/03/12 03:46:49;;;;;;;14.53;8.90;;;4.40;99.90;;;;;;4194990;28;20463;-79
2024/03/12 03:48:52;;;;;;;18.63;9.30;;;4.40;99.90;;;;;;4195354;28;20576;-80
2024/03/12 03:50:54;;;;;;;17.43;9.07;;;4.40;99.90;;;;;;4195139;28;20466;-80
2024/03/12 03:52:56;;;;;;;16.67;9.10;;;4.40;99.90;;;;;;4193776;28;20451;-79
2024/03/12 03:54:57;;;;;;;13.97;8.43;;;4.40;99.90;;;;;;4198843;28;20468;-80
2024/03/12 03:56:59;;;;;;;13.77;8.20;;;4.40;99.90;;;;;;4190907;28;21852;-80
2024/03/12 03:59:01;;;;;;;15.33;8.00;;;4.40;99.90;;;;;;4197008;28;20729;-79
2024/03/12 04:01:02;;;;;;;12.53;7.97;;;4.30;99.90;;;;;;4203662;28;20447;-79
2024/03/12 04:03:07;;;;;;;14.87;7.87;;;4.30;99.90;;;;;;4206354;28;20474;-80
2024/03/12 04:05:08;;;;;;;12.67;7.53;;;4.30;99.90;;;;;;4206007;28;20447;-78
2024/03/12 04:07:10;;;;;;;11.87;7.43;;;4.30;99.90;;;;;;4214353;28;20460;-78
2024/03/12 04:09:13;;;;;;;14.93;8.13;;;4.20;99.90;;;;;;4213081;28;20469;-79
2024/03/12 04:11:15;;;;;;;12.63;7.63;;;4.20;99.90;;;;;;4218970;28;20430;-78
2024/03/12 04:13:16;;;;;;;14.40;8.03;;;4.10;99.90;;;;;;4210261;28;20464;-80
2024/03/12 04:15:18;;;;;;;14.23;7.50;;;4.10;99.90;;;;;;4195393;28;20470;-79
2024/03/12 04:17:22;;;;;;;13.27;7.90;;;4.10;99.90;;;;;;4191614;28;21010;-79
2024/03/12 04:19:29;;;;;;;13.50;7.93;;;4.20;99.90;;;;;;4192568;28;20431;-78
2024/03/12 04:21:31;;;;;;;16.80;8.50;;;4.10;99.90;;;;;;4195382;28;20451;-79
2024/03/12 04:23:32;;;;;;;15.03;8.33;;;4.00;99.90;;;;;;4195221;28;20535;-78
2024/03/12 04:25:34;;;;;;;15.03;8.80;;;4.10;99.90;;;;;;4191694;28;21017;-78
2024/03/12 04:27:38;;;;;;;15.73;8.70;;;4.00;99.90;;;;;;4197838;28;20509;-78
2024/03/12 04:29:40;;;;;;;17.70;9.03;;;4.00;99.90;;;;;;4201753;28;20484;-78
2024/03/12 04:31:42;;;;;;;17.03;9.30;;;4.00;99.90;;;;;;4200205;28;20479;-78
2024/03/12 04:33:45;;;;;;;19.13;9.10;;;4.00;99.90;;;;;;4207252;28;20453;-80
2024/03/12 04:35:48;;;;;;;14.03;8.80;;;4.00;99.90;;;;;;4193123;28;20450;-80
2024/03/12 04:37:50;;;;;;;17.67;9.63;;;3.90;99.90;;;;;;4193462;28;20481;-78
2024/03/12 04:39:52;;;;;;;16.17;9.17;;;3.90;99.90;;;;;;4194783;28;20520;-78
2024/03/12 04:41:53;;;;;;;18.63;9.13;;;3.90;99.90;;;;;;4189866;28;20472;-78
2024/03/12 04:43:55;;;;;;;16.53;9.17;;;3.90;99.90;;;;;;4190882;28;20466;-78
2024/03/12 04:45:57;;;;;;;18.03;8.70;;;3.90;99.90;;;;;;4187483;28;20449;-79
2024/03/12 04:47:59;;;;;;;14.07;8.53;;;3.80;99.90;;;;;;4194326;28;20468;-79
2024/03/12 04:50:00;;;;;;;15.23;8.73;;;3.80;99.90;;;;;;4189930;28;20515;-77
2024/03/12 04:52:04;;;;;;;17.27;9.13;;;3.80;99.90;;;;;;4194359;28;20568;-78
2024/03/12 04:54:07;;;;;;;20.37;9.40;;;3.80;99.90;;;;;;4193232;28;20445;-78
2024/03/12 04:56:08;;;;;;;16.37;9.57;;;3.70;99.90;;;;;;4189960;28;20445;-79
2024/03/12 04:58:10;;;;;;;15.17;8.77;;;3.90;99.90;;;;;;4191042;28;20526;-78
2024/03/12 05:00:18;;;;;;;17.77;9.37;;;3.70;99.90;;;;;;4191850;28;20446;-78
2024/03/12 05:02:19;;;;;;;16.23;8.83;;;3.70;99.90;;;;;;4191370;28;21541;-78
2024/03/12 05:04:22;;;;;;;15.33;9.10;;;3.70;99.90;;;;;;4191563;28;20438;-77
2024/03/12 05:06:24;;;;;;;18.70;9.03;;;4.10;99.90;;;;;;4191674;28;20789;-77
2024/03/12 05:08:27;;;;;;;18.57;8.73;;;3.70;99.90;;;;;;4190588;28;20925;-77
2024/03/12 05:10:30;;;;;;;16.30;9.37;;;3.70;99.90;;;;;;4194646;28;20509;-78
2024/03/12 05:12:32;;;;;;;19.97;9.20;;;3.60;99.90;;;;;;4185468;28;20453;-77
2024/03/12 05:14:33;;;;;;;16.17;8.90;;;3.70;99.90;;;;;;4188599;28;20486;-77
2024/03/12 05:16:35;;;;;;;18.60;8.97;;;3.70;99.90;;;;;;4189149;28;20495;-77
2024/03/12 05:18:37;;;;;;;16.23;8.90;;;3.70;99.90;;;;;;4193343;28;20450;-77
2024/03/12 05:20:39;;;;;;;16.63;8.93;;;3.70;99.90;;;;;;4190795;28;20446;-78
2024/03/12 05:22:42;;;;;;;19.13;9.27;;;3.70;99.90;;;;;;4186711;28;20476;-79
2024/03/12 05:24:45;;;;;;;17.90;9.07;;;3.70;99.90;;;;;;4185263;28;20457;-78
2024/03/12 05:26:49;;;;;;;17.43;9.23;;;3.70;99.90;;;;;;4184439;28;20580;-79
2024/03/12 05:28:52;;;;;;;17.60;9.23;;;3.70;99.90;;;;;;4187051;28;20971;-78
2024/03/12 05:30:54;;;;;;;18.70;8.77;;;3.60;99.90;;;;;;4187355;28;20929;-79
2024/03/12 05:32:56;;;;;;;18.63;9.83;;;3.60;99.90;;;;;;4203676;28;20503;-79
2024/03/12 05:34:58;;;;;;;19.30;9.03;;;3.70;99.90;;;;;;4183843;28;21032;-80
2024/03/12 05:37:04;;;;;;;19.47;9.50;;;3.60;99.90;;;;;;4188710;28;20475;-78
2024/03/12 05:39:06;;;;;;;18.80;9.63;;;3.50;99.90;;;;;;4188175;28;21023;-78
2024/03/12 05:41:16;;;;;;;15.83;8.37;;;3.50;99.90;;;;;;4190188;28;20450;-78
2024/03/12 05:48:09;;;;;;;19.10;9.23;;;3.40;99.90;;;;;;4191038;28;20470;-79
2024/03/12 05:50:14;;;;;;;14.17;8.53;;;3.40;99.90;;;;;;4191661;28;20484;-79
2024/03/12 05:52:19;;;;;;;19.53;8.77;;;3.40;99.90;;;;;;4189679;28;20992;-79
2024/03/12 05:54:19;;;;;;;15.87;7.87;;;3.40;99.90;;;;;;4191580;28;20496;-77
2024/03/12 05:56:23;;;;;;;15.03;8.23;;;3.30;99.90;;;;;;4188460;28;20433;-79
2024/03/12 05:58:25;;;;;;;16.67;8.13;;;3.30;99.90;;;;;;4189966;28;20471;-78
2024/03/12 06:00:27;;;;;;;17.40;7.97;;;3.30;99.90;;;;;;4190085;28;21460;-78
2024/03/12 06:02:28;;;;;;;15.93;8.70;;;3.30;99.90;;;;;;4190698;28;20544;-78
2024/03/12 06:04:32;;;;;;;15.07;8.17;;;3.30;99.90;;;;;;4186425;28;20482;-77
2024/03/12 06:06:34;;;;;;;16.53;8.17;;;3.20;99.90;;;;;;4191487;28;20211;-78
2024/03/12 06:08:36;;;;;;;18.30;9.57;;;3.20;99.90;;;;;;4191439;28;20452;-78
2024/03/12 06:10:49;;;;;;;19.23;8.47;;;3.20;99.90;;;;;;4207720;28;20479;-78
2024/03/12 06:12:53;;;;;;;15.67;8.03;;;3.20;99.90;;;;;;4195252;28;20901;-78
2024/03/12 06:14:55;;;;;;;13.93;7.80;;;3.20;99.90;;;;;;4196008;28;20449;-79
2024/03/12 06:16:57;;;;;;;13.87;7.67;;;3.20;99.90;;;;;;4196216;28;20481;-79
2024/03/12 06:18:58;;;;;;;14.30;7.23;;;3.20;99.90;;;;;;4197145;28;20728;-78
2024/03/12 06:21:00;;;;;;;16.13;8.17;;;3.20;99.90;;;;;;4204539;28;20876;-78
2024/03/12 06:23:03;;;;;;;12.40;7.63;;;3.30;99.90;;;;;;4204427;28;20878;-78
2024/03/12 06:25:08;;;;;;;14.03;7.67;;;3.30;99.90;;;;;;4217688;28;20507;-79
2024/03/12 06:27:11;;;;;;;13.37;6.97;;;3.20;99.90;;;;;;4218423;28;20485;-79
2024/03/12 06:29:15;;;;;;;14.05;8.10;;;3.30;99.90;;;;;;4222006;28;20445;-78
2024/03/12 06:31:16;;;;;;;13.30;7.50;;;3.30;99.90;;;;;;4215563;28;20441;-78
2024/03/12 06:33:18;;;;;;;15.70;7.37;;;3.30;99.90;;;;;;4201631;28;20456;-78
2024/03/12 06:35:23;;;;;;;13.53;7.20;;;3.30;99.90;;;;;;4196808;28;20452;-78
2024/03/12 06:37:25;;;;;;;13.87;7.20;;;3.30;99.90;;;;;;4194802;28;20502;-78
2024/03/12 06:39:31;;;;;;;12.10;6.93;;;3.30;99.90;;;;;;4194729;28;20477;-79
2024/03/12 06:41:33;;;;;;;10.80;6.60;;;3.30;99.90;;;;;;4196760;28;20446;-78
2024/03/12 06:43:40;;;;;;;14.40;6.90;;;3.40;99.90;;;;;;4195523;28;20794;-78
2024/03/12 06:45:44;;;;;;;13.20;7.23;;;3.40;99.90;;;;;;4193279;28;20448;-78
2024/03/12 06:47:48;;;;;;;13.20;6.93;;;3.50;99.90;;;;;;4197228;28;20487;-78
2024/03/12 06:49:50;;;;;;;13.53;7.43;;;3.50;99.90;;;;;;4189191;28;20538;-78
2024/03/12 06:51:53;;;;;;;15.17;7.33;;;3.50;99.90;;;;;;4194010;28;20450;-77
2024/03/12 06:53:55;;;;;;;12.80;7.27;;;3.60;99.90;;;;;;4200372;28;20527;-79
2024/03/12 06:55:58;;;;;;;11.90;6.43;;;3.60;99.90;;;;;;4199379;28;20499;-77
2024/03/12 06:57:59;;;;;;;20.50;8.77;;;3.60;99.90;;;;;;4196304;28;20489;-79
2024/03/12 07:00:09;;;;;;;15.20;7.47;;;3.70;99.90;;;;;;4196672;28;20446;-79
2024/03/12 07:02:13;;;;;;;14.93;7.20;;;3.70;99.90;;;;;;4196172;28;20438;-78
2024/03/12 07:04:16;;;;;;;14.07;6.70;;;3.80;99.90;;;;;;4195763;28;20894;-82
2024/03/12 07:06:19;;;;;;;14.27;7.27;;;3.80;99.90;;;;;;4194070;28;20456;-78
2024/03/12 07:08:25;;;;;;;12.80;7.07;;;3.90;99.90;;;;;;4187286;28;20457;-79
2024/03/12 07:10:26;;;;;;;13.77;7.00;;;3.90;99.90;;;;;;4183215;28;20557;-79
2024/03/12 07:12:30;;;;;;;12.20;7.03;;;3.90;99.90;;;;;;4187349;28;20471;-80
2024/03/12 07:14:40;;;;;;;13.80;6.73;;;3.90;99.90;;;;;;4196838;28;20447;-81
2024/03/12 07:16:41;;;;;;;11.70;6.70;;;3.90;99.90;;;;;;4190615;28;20557;-79
2024/03/12 07:18:46;;;;;;;14.17;6.87;;;3.90;99.90;;;;;;4188204;28;20508;-78
2024/03/12 07:20:52;;;;;;;12.13;7.03;;;3.90;99.90;;;;;;4191861;28;20451;-78
2024/03/12 07:22:54;;;;;;;13.20;6.83;;;4.00;99.90;;;;;;4193754;28;20557;-77
2024/03/12 07:24:56;;;;;;;14.37;7.20;;;4.00;99.90;;;;;;4193028;28;20454;-79
2024/03/12 07:26:59;;;;;;;13.10;7.10;;;4.10;99.90;;;;;;4186537;28;20467;-79
2024/03/12 07:29:04;;;;;;;10.43;6.77;;;4.10;99.90;;;;;;4202104;28;20473;-87
2024/03/12 07:31:06;;;;;;;12.17;6.40;;;3.70;99.90;;;;;;4194682;28;20801;-83
2024/03/12 07:33:08;;;;;;;16.40;7.20;;;4.20;99.90;;;;;;4200301;28;20459;-82
2024/03/12 07:35:10;;;;;;;12.37;6.73;;;4.20;99.90;;;;;;4201283;28;20543;-82
2024/03/12 07:37:13;;;;;;;10.50;6.53;;;5.50;99.90;;;;;;4207239;28;20478;-81
2024/03/12 07:39:25;;;;;;;10.10;6.20;;;4.40;99.90;;;;;;4198471;28;20455;-80
2024/03/12 07:41:30;;;;;;;11.83;6.43;;;4.40;99.90;;;;;;4191246;28;20846;-83
2024/03/12 07:43:32;;;;;;;9.90;5.70;;;4.50;99.90;;;;;;4190820;28;20463;-81
2024/03/12 07:45:36;;;;;;;9.30;6.10;;;4.60;99.90;;;;;;4196419;28;20947;-83
2024/03/12 07:47:40;;;;;;;10.00;5.80;;;5.00;99.90;;;;;;4197072;28;20475;-80
2024/03/12 07:49:41;;;;;;;15.00;5.90;;;5.00;99.90;;;;;;4195640;28;20501;-80
2024/03/12 07:51:45;;;;;;;10.60;5.50;;;4.90;99.90;;;;;;4193983;28;21013;-82
2024/03/12 07:53:47;;;;;;;9.87;5.17;;;4.90;99.90;;;;;;4199798;28;20494;-82
2024/03/12 07:55:52;;;;;;;9.77;5.40;;;5.00;99.90;;;;;;4192186;28;20467;-81
2024/03/12 07:57:55;;;;;;;8.60;4.97;;;5.10;99.90;;;;;;4192387;28;20472;-80
2024/03/12 07:59:57;;;;;;;9.00;5.13;;;5.20;99.90;;;;;;4195811;28;21100;-81
2024/03/12 08:02:03;;;;;;;9.47;5.70;;;5.60;99.90;;;;;;4198193;28;20991;-83
2024/03/12 08:04:07;;;;;;;11.27;5.73;;;5.30;99.90;;;;;;4192952;28;21138;-81
2024/03/12 08:06:09;;;;;;;11.97;5.43;;;5.40;99.90;;;;;;4197668;28;20443;-80
2024/03/12 08:08:13;;;;;;;10.93;5.73;;;5.50;99.90;;;;;;4199305;28;20463;-82
2024/03/12 08:10:14;;;;;;;12.53;5.77;;;5.90;99.90;;;;;;4197334;28;20865;-81
2024/03/12 08:12:19;;;;;;;16.20;6.63;;;5.70;99.90;;;;;;4193312;28;20519;-81
2024/03/12 08:14:21;;;;;;;13.20;6.53;;;5.80;99.90;;;;;;4195452;28;20933;-81
2024/03/12 08:16:23;;;;;;;13.17;7.30;;;5.90;99.90;;;;;;4197827;28;20870;-82
2024/03/12 08:18:26;;;;;;;8.87;5.20;;;6.00;99.90;;;;;;4198138;28;20452;-81
2024/03/12 08:20:28;;;;;;;11.63;5.70;;;6.10;99.90;;;;;;4193875;28;20514;-81
2024/03/12 08:22:30;;;;;;;8.47;5.10;;;6.20;99.90;;;;;;4200472;28;20468;-82
2024/03/12 08:24:33;;;;;;;7.63;4.67;;;6.30;99.90;;;;;;4196654;28;20194;-82
2024/03/12 08:26:36;;;;;;;8.67;4.40;;;6.40;99.90;;;;;;4197658;28;20465;-81
2024/03/12 08:28:40;;;;;;;8.53;4.93;;;6.50;99.90;;;;;;4194096;28;20273;-81
2024/03/12 08:30:44;;;;;;;10.37;4.93;;;6.50;99.90;;;;;;4194709;28;21018;-84
2024/03/12 08:32:46;;;;;;;8.77;4.60;;;6.60;99.90;;;;;;4194695;28;20217;-83
2024/03/12 08:34:48;;;;;;;12.23;4.10;;;6.70;99.90;;;;;;4196822;28;20464;-84
2024/03/12 08:36:49;;;;;;;8.83;4.80;;;6.80;99.90;;;;;;4196469;28;20276;-82
2024/03/12 08:38:51;;;;;;;5.77;3.83;;;7.00;99.90;;;;;;4202387;28;20198;-83
2024/03/12 08:40:56;;;;;;;5.63;3.67;;;7.10;99.90;;;;;;4217610;28;20186;-83
2024/03/12 08:42:58;;;;;;;8.43;4.07;;;7.20;99.90;;;;;;4219266;28;20210;-83
2024/03/12 08:45:00;;;;;;;7.73;4.23;;;7.30;99.90;;;;;;4214466;28;20214;-83
2024/03/12 08:47:01;;;;;;;7.13;3.70;;;7.40;99.90;;;;;;4214860;28;20227;-82
2024/03/12 08:49:05;;;;;;;6.10;3.37;;;7.40;99.90;;;;;;4204152;28;20194;-82
2024/03/12 08:51:08;;;;;;;7.30;4.00;;;8.20;99.90;;;;;;4201435;28;20253;-82
2024/03/12 08:53:11;;;;;;;6.57;3.93;;;7.30;99.90;;;;;;4199278;28;20202;-81
2024/03/12 08:55:13;;;;;;;7.30;3.57;;;7.70;99.90;;;;;;4198461;28;20288;-83
2024/03/12 08:57:17;;;;;;;6.63;4.00;;;7.90;99.90;;;;;;4198209;28;20258;-80
2024/03/12 08:59:21;;;;;;;7.13;3.67;;;8.00;99.90;;;;;;4191009;28;20196;-80
2024/03/12 09:01:23;;;;;;;8.10;3.97;;;8.10;99.90;;;;;;4196548;28;20239;-84
2024/03/12 09:03:26;;;;;;;7.27;4.00;;;8.20;99.90;;;;;;4196156;28;20302;-81
2024/03/12 09:05:30;;;;;;;7.87;4.17;;;8.30;99.90;;;;;;4212064;28;20204;-79
2024/03/12 09:07:32;;;;;;;6.10;3.80;;;8.40;99.90;;;;;;4198159;28;20222;-81
2024/03/12 09:09:36;;;;;;;7.30;3.80;;;8.50;99.90;;;;;;4193884;28;20656;-81
2024/03/12 09:11:38;;;;;;;8.33;4.07;;;8.60;99.90;;;;;;4196212;28;20258;-83
2024/03/12 09:13:41;;;;;;;8.00;4.00;;;8.70;99.90;;;;;;4196689;28;20223;-80
2024/03/12 09:15:43;;;;;;;7.50;4.33;;;9.10;99.90;;;;;;4214790;28;20207;-82
2024/03/12 09:17:47;;;;;;;6.60;3.70;;;8.90;99.90;;;;;;4192671;28;20322;-80
2024/03/12 09:19:49;;;;;;;7.37;3.80;;;9.00;99.90;;;;;;4177784;28;20288;-80
2024/03/12 09:21:54;;;;;;;9.00;4.30;;;9.10;99.90;;;;;;4213131;28;20272;-79
2024/03/12 09:23:58;;;;;;;5.30;3.73;;;9.20;99.90;;;;;;4195814;28;20614;-80
2024/03/12 09:26:00;;;;;;;8.97;4.67;;;9.30;99.90;;;;;;4198065;28;20262;-83
2024/03/12 09:28:04;;;;;;;8.03;4.30;;;9.10;99.90;;;;;;4195988;28;20254;-84
2024/03/12 09:30:10;;;;;;;8.77;4.70;;;9.40;99.90;;;;;;4193229;28;20269;-82
2024/03/12 09:32:13;;;;;;;6.37;3.60;;;9.50;99.90;;;;;;4195411;28;20289;-80
2024/03/12 09:34:16;;;;;;;7.17;4.23;;;9.50;99.90;;;;;;4191480;28;20215;-81
2024/03/12 09:36:20;;;;;;;7.23;4.10;;;9.60;99.90;;;;;;4191505;28;20210;-82
2024/03/12 09:38:22;;;;;;;8.30;4.80;;;9.70;99.90;;;;;;4194233;28;20201;-80
2024/03/12 09:40:23;;;;;;;8.57;4.67;;;9.80;99.90;;;;;;4193174;28;20333;-81
2024/03/12 09:42:28;;;;;;;7.10;4.77;;;9.90;99.90;;;;;;4196661;28;20655;-80
2024/03/12 09:44:30;;;;;;;10.33;4.60;;;10.00;99.90;;;;;;4194627;28;20208;-81
2024/03/12 09:46:36;;;;;;;7.57;4.20;;;10.00;99.90;;;;;;4196200;28;20209;-81
2024/03/12 09:48:42;;;;;;;8.77;5.17;;;10.20;99.90;;;;;;4194313;28;20827;-80
2024/03/12 09:50:44;;;;;;;8.93;4.60;;;10.20;99.90;;;;;;4195847;28;20213;-80
2024/03/12 09:52:51;;;;;;;6.60;4.80;;;10.40;99.90;;;;;;4195053;28;20758;-81
2024/03/12 09:54:55;;;;;;;9.07;5.13;;;10.50;99.90;;;;;;4192285;28;20288;-80
2024/03/12 09:57:02;;;;;;;7.90;5.43;;;10.60;99.90;;;;;;4191908;28;20238;-81
2024/03/12 09:59:04;;;;;;;8.10;4.73;;;11.00;99.90;;;;;;4192441;28;20611;-80
2024/03/12 10:01:06;;;;;;;8.10;4.50;;;10.80;99.90;;;;;;4191497;28;20271;-80
2024/03/12 10:03:10;;;;;;;8.50;5.10;;;10.90;99.90;;;;;;4198281;28;20206;-81
2024/03/12 10:05:14;;;;;;;9.47;5.20;;;10.90;99.90;;;;;;4196151;28;20586;-81
2024/03/12 10:07:17;;;;;;;9.43;5.07;;;10.90;99.90;;;;;;4195547;28;20231;-80
2024/03/12 10:09:27;;;;;;;8.77;5.40;;;11.00;99.90;;;;;;4190919;28;20244;-80
2024/03/12 10:11:40;;;;;;;10.63;5.00;;;11.00;99.90;;;;;;4188015;28;20301;-79
2024/03/12 10:13:42;;;;;;;7.67;4.87;;;11.00;99.90;;;;;;4198298;28;20209;-80
2024/03/12 10:15:53;;;;;;;10.13;5.43;;;11.10;99.90;;;;;;4196265;28;20214;-80
2024/03/12 10:17:59;;;;;;;15.07;4.77;;;11.00;99.90;;;;;;4196285;28;20256;-81
2024/03/12 10:20:15;;;;;;;10.73;5.53;;;11.00;99.90;;;;;;4197624;28;20670;-79
2024/03/12 10:22:20;;;;;;;9.93;5.43;;;11.10;99.90;;;;;;4198664;28;20280;-81
2024/03/12 10:24:22;;;;;;;9.47;5.10;;;11.10;99.90;;;;;;4202041;28;20214;-79
2024/03/12 10:26:31;;;;;;;11.07;5.30;;;11.20;99.90;;;;;;4200709;28;20670;-79
2024/03/12 10:28:33;;;;;;;10.30;4.87;;;11.20;99.90;;;;;;4200256;28;20197;-81
2024/03/12 10:30:36;;;;;;;7.17;4.60;;;11.30;99.90;;;;;;4195543;28;20191;-80
2024/03/12 10:32:41;;;;;;;7.73;4.70;;;11.40;99.90;;;;;;4195778;28;20213;-80
2024/03/12 10:34:49;;;;;;;9.00;4.57;;;11.40;99.90;;;;;;4205475;28;20251;-81
2024/03/12 10:36:55;;;;;;;8.23;4.73;;;11.60;99.90;;;;;;4203095;28;20280;-80
2024/03/12 10:38:56;;;;;;;8.53;5.03;;;11.60;99.90;;;;;;4202608;28;20243;-80
2024/03/12 10:40:58;;;;;;;8.50;5.13;;;11.70;99.90;;;;;;4195436;28;20226;-80
2024/03/12 10:43:03;;;;;;;9.30;4.77;;;11.70;99.90;;;;;;4195018;28;20260;-80
2024/03/12 10:45:09;;;;;;;7.63;4.53;;;11.80;99.90;;;;;;4194191;28;20303;-79
2024/03/12 10:47:11;;;;;;;7.47;4.50;;;11.80;99.90;;;;;;4193306;28;20218;-79